Flight Track Log - Related Links

Times and Time Zones

All times are in EDT time to prevent confusion due to time zone crossing. See the CPT8691 flight status page for this flight to view local times or setup timezone preferences in your user account.

Time Position Orientation Groundspeed Altitude Reporting Facility
EDT Latitude Longitude Course Direction KTS MPH feet Rate Location/Type
Fri 01:01:19 PM 21.3167 -157.8833 155° Southeast 80 92 700  Level Honolulu Center
Fri 01:02:19 PM 21.2833 -157.8667 155° Southeast 110 127 1,300 650 Climbing Honolulu Center
Fri 01:03:19 PM 21.2667 -157.8500 137° Southeast 100 115 2,000 694 Climbing Honolulu Center
Fri 01:04:20 PM 21.2500 -157.8333 137° Southeast 90 104 2,700 645 Climbing Honolulu Center
Fri 01:05:20 PM 21.2500 -157.8000 90° East 90 104 3,300 550 Climbing Honolulu Center
Fri 01:06:20 PM 21.2333 -157.7833 137° Southeast 100 115 3,800 550 Climbing Honolulu Center
Fri 01:07:20 PM 21.2333 -157.7500 90° East 100 115 4,400 600 Climbing Honolulu Center
Fri 01:08:20 PM 21.2333 -157.7167 90° East 110 127 5,000 550 Climbing Honolulu Center
Fri 01:09:20 PM 21.2167 -157.6833 118° Southeast 110 127 5,500 550 Climbing Honolulu Center
Fri 01:10:20 PM 21.2167 -157.6500 90° East 110 127 6,100 550 Climbing Honolulu Center
Fri 01:11:20 PM 21.2167 -157.6167 90° East 120 138 6,600 450 Climbing Honolulu Center
Fri 01:12:20 PM 21.2000 -157.5833 118° Southeast 130 150 7,000 200 Climbing Honolulu Center
Fri 01:13:20 PM 21.2000 -157.5333 90° East 150 173 7,000  Level Honolulu Center
Fri 01:14:21 PM 21.1833 -157.5000 118° Southeast 140 161 7,000  Level Honolulu Center
Fri 01:15:21 PM 21.1833 -157.4500 90° East 140 161 7,000  Level Honolulu Center
Fri 01:16:21 PM 21.1833 -157.4167 90° East 140 161 7,000  Level Honolulu Center
Fri 01:17:21 PM 21.1667 -157.3667 110° East 140 161 7,000  Level Honolulu Center
Fri 01:18:21 PM 21.1667 -157.3333 90° East 140 161 7,000  Level Honolulu Center
Fri 01:19:21 PM 21.1500 -157.3000 118° Southeast 140 161 7,000  Level Honolulu Center
Fri 01:20:21 PM 21.1333 -157.2500 110° East 150 173 7,000  Level Honolulu Center
Fri 01:21:21 PM 21.1000 -157.2167 137° Southeast 150 173 7,000  Level Honolulu Center
Fri 01:22:21 PM 21.0833 -157.2000 137° Southeast 140 161 7,000  Level Honolulu Center
Fri 01:23:21 PM 21.0667 -157.1500 110° East 150 173 7,000 -198 Level Honolulu Center
Fri 01:24:22 PM 21.0333 -157.1167 137° Southeast 160 184 6,600 -397 Descending Honolulu Center
Fri 01:25:22 PM 21.0167 -157.0667 110° East 170 196 6,200 -400 Descending Honolulu Center
Fri 01:26:22 PM 21.0000 -157.0167 110° East 170 196 5,800 -400 Descending Honolulu Center
Fri 01:27:22 PM 20.9833 -156.9833 118° Southeast 150 173 5,400 -400 Descending Honolulu Center
Fri 01:28:22 PM 20.9667 -156.9333 110° East 150 173 5,000 -400 Descending Honolulu Center

Login

Don't have an account? Register now (free) for customized features, flight alerts, and more!